sensor_id;sensor_type;location;lat;lon;timestamp;P1;durP1;ratioP1;P2;durP2;ratioP2
23614;SDS011;11985;49.404;7.734;2023-10-13T00:01:31;16.50;;;6.22;;
23614;SDS011;11985;49.404;7.734;2023-10-13T00:06:34;17.95;;;6.03;;
23614;SDS011;11985;49.404;7.734;2023-10-13T00:11:40;19.15;;;6.47;;
23614;SDS011;11985;49.404;7.734;2023-10-13T00:16:44;14.60;;;5.97;;
23614;SDS011;11985;49.404;7.734;2023-10-13T00:22:02;15.65;;;6.30;;
23614;SDS011;11985;49.404;7.734;2023-10-13T00:27:09;18.95;;;7.28;;
23614;SDS011;11985;49.404;7.734;2023-10-13T00:32:27;24.85;;;7.32;;
23614;SDS011;11985;49.404;7.734;2023-10-13T00:37:33;19.85;;;6.50;;
23614;SDS011;11985;49.404;7.734;2023-10-13T00:42:42;16.30;;;6.65;;
23614;SDS011;11985;49.404;7.734;2023-10-13T00:47:51;18.65;;;7.50;;
23614;SDS011;11985;49.404;7.734;2023-10-13T00:52:58;14.65;;;7.32;;
23614;SDS011;11985;49.404;7.734;2023-10-13T00:58:00;20.92;;;7.22;;
23614;SDS011;11985;49.404;7.734;2023-10-13T01:03:04;16.20;;;6.97;;
23614;SDS011;11985;49.404;7.734;2023-10-13T01:08:08;13.93;;;7.13;;
23614;SDS011;11985;49.404;7.734;2023-10-13T01:13:11;14.98;;;7.20;;
23614;SDS011;11985;49.404;7.734;2023-10-13T01:18:13;19.08;;;7.10;;
23614;SDS011;11985;49.404;7.734;2023-10-13T01:23:18;13.82;;;7.05;;
23614;SDS011;11985;49.404;7.734;2023-10-13T01:28:19;20.38;;;7.78;;
23614;SDS011;11985;49.404;7.734;2023-10-13T01:33:22;15.93;;;7.03;;
23614;SDS011;11985;49.404;7.734;2023-10-13T01:38:28;15.20;;;7.55;;
23614;SDS011;11985;49.404;7.734;2023-10-13T01:43:33;15.93;;;7.82;;
23614;SDS011;11985;49.404;7.734;2023-10-13T01:48:36;13.43;;;7.38;;
23614;SDS011;11985;49.404;7.734;2023-10-13T01:53:40;16.65;;;6.82;;
23614;SDS011;11985;49.404;7.734;2023-10-13T01:58:42;16.30;;;8.45;;
23614;SDS011;11985;49.404;7.734;2023-10-13T02:03:47;15.27;;;7.05;;
23614;SDS011;11985;49.404;7.734;2023-10-13T02:08:50;26.73;;;7.63;;
23614;SDS011;11985;49.404;7.734;2023-10-13T02:13:57;14.63;;;7.47;;
23614;SDS011;11985;49.404;7.734;2023-10-13T02:19:00;19.10;;;7.32;;
23614;SDS011;11985;49.404;7.734;2023-10-13T02:29:13;17.58;;;7.18;;
23614;SDS011;11985;49.404;7.734;2023-10-13T02:34:17;17.17;;;8.02;;
23614;SDS011;11985;49.404;7.734;2023-10-13T02:39:20;18.63;;;7.50;;
23614;SDS011;11985;49.404;7.734;2023-10-13T02:44:25;14.38;;;6.80;;
23614;SDS011;11985;49.404;7.734;2023-10-13T02:49:31;12.02;;;6.95;;
23614;SDS011;11985;49.404;7.734;2023-10-13T02:54:35;15.15;;;6.55;;
23614;SDS011;11985;49.404;7.734;2023-10-13T02:59:40;11.50;;;6.93;;
23614;SDS011;11985;49.404;7.734;2023-10-13T03:04:46;12.55;;;7.10;;
23614;SDS011;11985;49.404;7.734;2023-10-13T03:09:50;23.38;;;7.47;;
23614;SDS011;11985;49.404;7.734;2023-10-13T03:14:53;20.27;;;7.40;;
23614;SDS011;11985;49.404;7.734;2023-10-13T03:19:57;17.45;;;7.28;;
23614;SDS011;11985;49.404;7.734;2023-10-13T03:25:00;16.35;;;6.82;;
23614;SDS011;11985;49.404;7.734;2023-10-13T03:30:06;13.73;;;7.40;;
23614;SDS011;11985;49.404;7.734;2023-10-13T03:35:14;23.05;;;7.35;;
23614;SDS011;11985;49.404;7.734;2023-10-13T03:40:25;14.52;;;6.60;;
23614;SDS011;11985;49.404;7.734;2023-10-13T03:45:38;17.08;;;6.68;;
23614;SDS011;11985;49.404;7.734;2023-10-13T03:50:41;22.30;;;6.95;;
23614;SDS011;11985;49.404;7.734;2023-10-13T03:55:49;22.00;;;7.70;;
23614;SDS011;11985;49.404;7.734;2023-10-13T04:01:08;26.45;;;6.82;;
23614;SDS011;11985;49.404;7.734;2023-10-13T04:06:12;23.92;;;6.20;;
23614;SDS011;11985;49.404;7.734;2023-10-13T04:11:18;19.25;;;6.65;;
23614;SDS011;11985;49.404;7.734;2023-10-13T04:16:37;17.63;;;6.47;;
23614;SDS011;11985;49.404;7.734;2023-10-13T04:21:50;13.48;;;6.03;;
23614;SDS011;11985;49.404;7.734;2023-10-13T04:27:15;19.05;;;6.25;;
23614;SDS011;11985;49.404;7.734;2023-10-13T04:32:29;18.45;;;6.45;;
23614;SDS011;11985;49.404;7.734;2023-10-13T04:37:33;18.08;;;6.20;;
23614;SDS011;11985;49.404;7.734;2023-10-13T04:42:51;19.48;;;7.30;;
23614;SDS011;11985;49.404;7.734;2023-10-13T04:47:57;16.80;;;6.90;;
23614;SDS011;11985;49.404;7.734;2023-10-13T04:53:14;20.00;;;6.43;;
23614;SDS011;11985;49.404;7.734;2023-10-13T04:58:35;19.10;;;6.22;;
23614;SDS011;11985;49.404;7.734;2023-10-13T05:04:07;17.17;;;6.22;;
23614;SDS011;11985;49.404;7.734;2023-10-13T05:09:30;18.33;;;6.70;;
23614;SDS011;11985;49.404;7.734;2023-10-13T05:14:50;17.83;;;6.30;;
23614;SDS011;11985;49.404;7.734;2023-10-13T05:20:10;15.13;;;5.78;;
23614;SDS011;11985;49.404;7.734;2023-10-13T05:25:28;19.65;;;6.30;;
23614;SDS011;11985;49.404;7.734;2023-10-13T05:30:49;14.25;;;6.13;;
23614;SDS011;11985;49.404;7.734;2023-10-13T05:36:09;16.60;;;6.00;;
23614;SDS011;11985;49.404;7.734;2023-10-13T05:41:29;18.17;;;6.75;;
23614;SDS011;11985;49.404;7.734;2023-10-13T05:46:50;17.80;;;6.70;;
23614;SDS011;11985;49.404;7.734;2023-10-13T05:52:23;13.43;;;6.47;;
23614;SDS011;11985;49.404;7.734;2023-10-13T05:57:38;14.27;;;6.40;;
23614;SDS011;11985;49.404;7.734;2023-10-13T06:02:58;12.88;;;6.60;;
23614;SDS011;11985;49.404;7.734;2023-10-13T06:08:32;18.23;;;6.82;;
23614;SDS011;11985;49.404;7.734;2023-10-13T06:14:03;16.75;;;7.15;;
23614;SDS011;11985;49.404;7.734;2023-10-13T06:19:32;11.80;;;6.00;;
23614;SDS011;11985;49.404;7.734;2023-10-13T06:24:51;18.45;;;6.13;;
23614;SDS011;11985;49.404;7.734;2023-10-13T06:30:10;12.40;;;5.57;;
23614;SDS011;11985;49.404;7.734;2023-10-13T06:35:14;12.10;;;6.30;;
23614;SDS011;11985;49.404;7.734;2023-10-13T06:40:23;15.68;;;6.75;;
23614;SDS011;11985;49.404;7.734;2023-10-13T06:45:33;14.30;;;6.55;;
23614;SDS011;11985;49.404;7.734;2023-10-13T06:50:38;12.63;;;5.97;;
23614;SDS011;11985;49.404;7.734;2023-10-13T06:55:41;13.32;;;6.50;;
23614;SDS011;11985;49.404;7.734;2023-10-13T07:00:46;15.45;;;6.45;;
23614;SDS011;11985;49.404;7.734;2023-10-13T07:05:56;14.93;;;7.28;;
23614;SDS011;11985;49.404;7.734;2023-10-13T07:10:59;13.45;;;6.10;;
23614;SDS011;11985;49.404;7.734;2023-10-13T07:16:05;13.52;;;6.35;;
23614;SDS011;11985;49.404;7.734;2023-10-13T07:21:13;9.35;;;6.13;;
23614;SDS011;11985;49.404;7.734;2023-10-13T07:26:15;11.15;;;5.97;;
23614;SDS011;11985;49.404;7.734;2023-10-13T07:31:17;10.15;;;5.85;;
23614;SDS011;11985;49.404;7.734;2023-10-13T07:36:22;10.50;;;5.80;;
23614;SDS011;11985;49.404;7.734;2023-10-13T07:41:28;11.40;;;6.07;;
23614;SDS011;11985;49.404;7.734;2023-10-13T07:51:36;17.35;;;5.65;;
23614;SDS011;11985;49.404;7.734;2023-10-13T07:56:44;14.35;;;6.32;;
23614;SDS011;11985;49.404;7.734;2023-10-13T08:01:45;13.60;;;6.85;;
23614;SDS011;11985;49.404;7.734;2023-10-13T08:06:48;16.50;;;7.35;;
23614;SDS011;11985;49.404;7.734;2023-10-13T08:12:01;9.73;;;6.18;;
23614;SDS011;11985;49.404;7.734;2023-10-13T08:17:06;11.98;;;6.32;;
23614;SDS011;11985;49.404;7.734;2023-10-13T08:22:12;13.80;;;6.45;;
23614;SDS011;11985;49.404;7.734;2023-10-13T08:27:24;14.10;;;6.57;;
23614;SDS011;11985;49.404;7.734;2023-10-13T08:32:36;11.32;;;6.78;;
23614;SDS011;11985;49.404;7.734;2023-10-13T08:37:48;14.27;;;6.57;;
23614;SDS011;11985;49.404;7.734;2023-10-13T08:42:59;17.60;;;6.57;;
23614;SDS011;11985;49.404;7.734;2023-10-13T08:48:13;11.57;;;6.07;;
23614;SDS011;11985;49.404;7.734;2023-10-13T08:53:17;7.28;;;5.78;;
23614;SDS011;11985;49.404;7.734;2023-10-13T08:58:27;10.63;;;5.85;;
23614;SDS011;11985;49.404;7.734;2023-10-13T09:03:49;17.05;;;6.32;;
23614;SDS011;11985;49.404;7.734;2023-10-13T09:08:54;14.23;;;6.07;;
23614;SDS011;11985;49.404;7.734;2023-10-13T09:14:12;12.32;;;5.95;;
23614;SDS011;11985;49.404;7.734;2023-10-13T09:19:33;13.43;;;5.70;;
23614;SDS011;11985;49.404;7.734;2023-10-13T09:24:46;12.32;;;5.80;;
23614;SDS011;11985;49.404;7.734;2023-10-13T09:29:54;11.95;;;6.20;;
23614;SDS011;11985;49.404;7.734;2023-10-13T09:34:59;14.63;;;4.90;;
23614;SDS011;11985;49.404;7.734;2023-10-13T09:40:04;12.25;;;5.55;;
23614;SDS011;11985;49.404;7.734;2023-10-13T09:45:26;11.80;;;5.05;;
23614;SDS011;11985;49.404;7.734;2023-10-13T09:50:29;11.25;;;5.35;;
23614;SDS011;11985;49.404;7.734;2023-10-13T09:55:36;11.05;;;5.32;;
23614;SDS011;11985;49.404;7.734;2023-10-13T10:00:46;10.70;;;5.10;;
23614;SDS011;11985;49.404;7.734;2023-10-13T10:05:58;13.60;;;4.95;;
23614;SDS011;11985;49.404;7.734;2023-10-13T10:11:18;11.63;;;4.60;;
23614;SDS011;11985;49.404;7.734;2023-10-13T10:16:30;9.95;;;4.40;;
23614;SDS011;11985;49.404;7.734;2023-10-13T10:21:46;10.93;;;4.60;;
23614;SDS011;11985;49.404;7.734;2023-10-13T10:26:53;11.35;;;4.88;;
23614;SDS011;11985;49.404;7.734;2023-10-13T10:31:54;10.25;;;4.45;;
23614;SDS011;11985;49.404;7.734;2023-10-13T10:36:56;10.60;;;4.60;;
23614;SDS011;11985;49.404;7.734;2023-10-13T10:42:08;8.57;;;4.50;;
23614;SDS011;11985;49.404;7.734;2023-10-13T10:47:15;11.98;;;5.13;;
23614;SDS011;11985;49.404;7.734;2023-10-13T10:52:30;10.82;;;4.93;;
23614;SDS011;11985;49.404;7.734;2023-10-13T10:57:38;9.10;;;4.03;;
23614;SDS011;11985;49.404;7.734;2023-10-13T11:02:43;10.35;;;4.03;;
23614;SDS011;11985;49.404;7.734;2023-10-13T11:07:54;19.15;;;4.18;;
23614;SDS011;11985;49.404;7.734;2023-10-13T11:12:58;6.97;;;4.20;;
23614;SDS011;11985;49.404;7.734;2023-10-13T11:18:13;11.25;;;4.45;;
23614;SDS011;11985;49.404;7.734;2023-10-13T11:23:20;8.93;;;4.63;;
23614;SDS011;11985;49.404;7.734;2023-10-13T11:28:26;12.10;;;4.50;;
23614;SDS011;11985;49.404;7.734;2023-10-13T11:33:28;8.73;;;4.43;;
23614;SDS011;11985;49.404;7.734;2023-10-13T11:38:30;9.30;;;4.43;;
23614;SDS011;11985;49.404;7.734;2023-10-13T11:43:45;9.20;;;4.28;;
23614;SDS011;11985;49.404;7.734;2023-10-13T11:49:05;10.55;;;4.05;;
23614;SDS011;11985;49.404;7.734;2023-10-13T11:54:18;10.25;;;4.10;;
23614;SDS011;11985;49.404;7.734;2023-10-13T11:59:23;8.90;;;4.18;;
23614;SDS011;11985;49.404;7.734;2023-10-13T12:04:27;7.85;;;4.10;;
23614;SDS011;11985;49.404;7.734;2023-10-13T12:09:33;11.45;;;4.20;;
23614;SDS011;11985;49.404;7.734;2023-10-13T12:14:44;8.55;;;3.88;;
23614;SDS011;11985;49.404;7.734;2023-10-13T12:19:55;16.13;;;3.85;;
23614;SDS011;11985;49.404;7.734;2023-10-13T12:24:57;8.32;;;4.40;;
23614;SDS011;11985;49.404;7.734;2023-10-13T12:30:00;7.18;;;3.58;;
23614;SDS011;11985;49.404;7.734;2023-10-13T12:35:07;10.27;;;4.13;;
23614;SDS011;11985;49.404;7.734;2023-10-13T12:40:27;7.75;;;3.65;;
23614;SDS011;11985;49.404;7.734;2023-10-13T12:45:48;12.30;;;4.45;;
23614;SDS011;11985;49.404;7.734;2023-10-13T12:51:07;11.95;;;3.90;;
23614;SDS011;11985;49.404;7.734;2023-10-13T12:56:20;10.68;;;4.07;;
23614;SDS011;11985;49.404;7.734;2023-10-13T13:01:27;8.45;;;3.53;;
23614;SDS011;11985;49.404;7.734;2023-10-13T13:06:33;10.80;;;3.83;;
23614;SDS011;11985;49.404;7.734;2023-10-13T13:11:34;6.82;;;4.00;;
23614;SDS011;11985;49.404;7.734;2023-10-13T13:16:41;8.23;;;3.65;;
23614;SDS011;11985;49.404;7.734;2023-10-13T13:21:48;12.15;;;3.30;;
23614;SDS011;11985;49.404;7.734;2023-10-13T13:26:49;9.43;;;3.92;;
23614;SDS011;11985;49.404;7.734;2023-10-13T13:31:56;8.70;;;3.88;;
23614;SDS011;11985;49.404;7.734;2023-10-13T13:36:57;12.95;;;3.70;;
23614;SDS011;11985;49.404;7.734;2023-10-13T13:42:00;12.85;;;4.63;;
23614;SDS011;11985;49.404;7.734;2023-10-13T13:47:03;13.88;;;3.95;;
23614;SDS011;11985;49.404;7.734;2023-10-13T13:52:11;7.97;;;3.45;;
23614;SDS011;11985;49.404;7.734;2023-10-13T13:57:17;9.05;;;3.15;;
23614;SDS011;11985;49.404;7.734;2023-10-13T14:02:20;7.15;;;3.63;;
23614;SDS011;11985;49.404;7.734;2023-10-13T14:07:22;9.15;;;3.28;;
23614;SDS011;11985;49.404;7.734;2023-10-13T14:12:24;12.52;;;3.75;;
23614;SDS011;11985;49.404;7.734;2023-10-13T14:17:42;8.43;;;3.47;;
23614;SDS011;11985;49.404;7.734;2023-10-13T14:22:44;7.35;;;3.05;;
23614;SDS011;11985;49.404;7.734;2023-10-13T14:27:47;7.30;;;2.93;;
23614;SDS011;11985;49.404;7.734;2023-10-13T14:32:50;8.38;;;3.20;;
23614;SDS011;11985;49.404;7.734;2023-10-13T14:37:52;9.63;;;3.00;;
23614;SDS011;11985;49.404;7.734;2023-10-13T14:42:54;5.78;;;3.05;;
23614;SDS011;11985;49.404;7.734;2023-10-13T14:47:57;9.02;;;3.25;;
23614;SDS011;11985;49.404;7.734;2023-10-13T14:52:59;12.48;;;3.25;;
23614;SDS011;11985;49.404;7.734;2023-10-13T14:58:00;7.05;;;3.03;;
23614;SDS011;11985;49.404;7.734;2023-10-13T15:03:05;12.23;;;3.50;;
23614;SDS011;11985;49.404;7.734;2023-10-13T15:08:07;15.45;;;5.20;;
23614;SDS011;11985;49.404;7.734;2023-10-13T15:13:09;6.70;;;3.38;;
23614;SDS011;11985;49.404;7.734;2023-10-13T15:18:12;6.95;;;2.95;;
23614;SDS011;11985;49.404;7.734;2023-10-13T15:23:13;13.88;;;3.08;;
23614;SDS011;11985;49.404;7.734;2023-10-13T15:28:23;8.30;;;2.97;;
23614;SDS011;11985;49.404;7.734;2023-10-13T15:33:32;6.38;;;2.40;;
23614;SDS011;11985;49.404;7.734;2023-10-13T15:38:34;17.15;;;4.00;;
23614;SDS011;11985;49.404;7.734;2023-10-13T15:43:37;9.90;;;3.25;;
23614;SDS011;11985;49.404;7.734;2023-10-13T15:48:43;5.93;;;2.72;;
23614;SDS011;11985;49.404;7.734;2023-10-13T15:53:45;11.00;;;3.07;;
23614;SDS011;11985;49.404;7.734;2023-10-13T15:58:48;7.10;;;2.63;;
23614;SDS011;11985;49.404;7.734;2023-10-13T16:03:51;12.23;;;2.80;;
23614;SDS011;11985;49.404;7.734;2023-10-13T16:08:54;6.10;;;2.73;;
23614;SDS011;11985;49.404;7.734;2023-10-13T16:13:55;12.77;;;2.60;;
23614;SDS011;11985;49.404;7.734;2023-10-13T16:18:58;10.40;;;2.92;;
23614;SDS011;11985;49.404;7.734;2023-10-13T16:24:05;12.88;;;3.85;;
23614;SDS011;11985;49.404;7.734;2023-10-13T16:29:10;11.27;;;2.55;;
23614;SDS011;11985;49.404;7.734;2023-10-13T16:34:18;8.50;;;2.60;;
23614;SDS011;11985;49.404;7.734;2023-10-13T16:39:20;7.88;;;3.15;;
23614;SDS011;11985;49.404;7.734;2023-10-13T16:44:22;11.80;;;2.47;;
23614;SDS011;11985;49.404;7.734;2023-10-13T16:49:27;7.72;;;2.50;;
23614;SDS011;11985;49.404;7.734;2023-10-13T16:54:28;12.38;;;3.00;;
23614;SDS011;11985;49.404;7.734;2023-10-13T16:59:30;8.25;;;2.72;;
23614;SDS011;11985;49.404;7.734;2023-10-13T17:04:33;9.65;;;2.75;;
23614;SDS011;11985;49.404;7.734;2023-10-13T17:09:35;5.40;;;2.60;;
23614;SDS011;11985;49.404;7.734;2023-10-13T17:14:36;9.73;;;2.72;;
23614;SDS011;11985;49.404;7.734;2023-10-13T17:19:41;5.53;;;2.47;;
23614;SDS011;11985;49.404;7.734;2023-10-13T17:24:49;8.52;;;2.47;;
23614;SDS011;11985;49.404;7.734;2023-10-13T17:29:51;5.72;;;2.50;;
23614;SDS011;11985;49.404;7.734;2023-10-13T17:34:56;6.88;;;2.50;;
23614;SDS011;11985;49.404;7.734;2023-10-13T17:39:57;5.57;;;2.22;;
23614;SDS011;11985;49.404;7.734;2023-10-13T17:45:00;11.55;;;2.53;;
23614;SDS011;11985;49.404;7.734;2023-10-13T17:50:03;8.00;;;3.00;;
23614;SDS011;11985;49.404;7.734;2023-10-13T17:55:08;8.18;;;2.60;;
23614;SDS011;11985;49.404;7.734;2023-10-13T18:00:10;7.68;;;2.35;;
23614;SDS011;11985;49.404;7.734;2023-10-13T18:05:16;5.40;;;2.42;;
23614;SDS011;11985;49.404;7.734;2023-10-13T18:10:18;10.10;;;2.45;;
23614;SDS011;11985;49.404;7.734;2023-10-13T18:15:20;7.07;;;2.38;;
23614;SDS011;11985;49.404;7.734;2023-10-13T18:20:25;6.17;;;2.60;;
23614;SDS011;11985;49.404;7.734;2023-10-13T18:25:28;9.55;;;3.00;;
23614;SDS011;11985;49.404;7.734;2023-10-13T18:30:31;7.32;;;2.65;;
23614;SDS011;11985;49.404;7.734;2023-10-13T18:35:37;9.57;;;2.53;;
23614;SDS011;11985;49.404;7.734;2023-10-13T18:40:40;12.75;;;2.67;;
23614;SDS011;11985;49.404;7.734;2023-10-13T18:45:41;6.70;;;2.67;;
23614;SDS011;11985;49.404;7.734;2023-10-13T18:50:45;11.95;;;3.45;;
23614;SDS011;11985;49.404;7.734;2023-10-13T18:55:46;9.88;;;3.30;;
23614;SDS011;11985;49.404;7.734;2023-10-13T19:00:48;6.30;;;3.00;;
23614;SDS011;11985;49.404;7.734;2023-10-13T19:05:56;8.55;;;2.88;;
23614;SDS011;11985;49.404;7.734;2023-10-13T19:11:01;6.25;;;3.10;;
23614;SDS011;11985;49.404;7.734;2023-10-13T19:16:04;11.20;;;3.75;;
23614;SDS011;11985;49.404;7.734;2023-10-13T19:21:08;5.28;;;3.10;;
23614;SDS011;11985;49.404;7.734;2023-10-13T19:26:14;9.27;;;3.28;;
23614;SDS011;11985;49.404;7.734;2023-10-13T19:31:17;6.82;;;3.55;;
23614;SDS011;11985;49.404;7.734;2023-10-13T19:36:20;9.02;;;3.22;;
23614;SDS011;11985;49.404;7.734;2023-10-13T19:41:23;11.35;;;3.45;;
23614;SDS011;11985;49.404;7.734;2023-10-13T19:46:26;6.13;;;3.13;;
23614;SDS011;11985;49.404;7.734;2023-10-13T19:51:29;17.45;;;4.80;;
23614;SDS011;11985;49.404;7.734;2023-10-13T19:56:31;6.00;;;3.80;;
23614;SDS011;11985;49.404;7.734;2023-10-13T20:01:33;18.60;;;4.15;;
23614;SDS011;11985;49.404;7.734;2023-10-13T20:06:36;9.52;;;4.18;;
23614;SDS011;11985;49.404;7.734;2023-10-13T20:11:40;13.35;;;4.43;;
23614;SDS011;11985;49.404;7.734;2023-10-13T20:16:46;6.43;;;3.55;;
23614;SDS011;11985;49.404;7.734;2023-10-13T20:21:49;8.27;;;4.30;;
23614;SDS011;11985;49.404;7.734;2023-10-13T20:26:50;13.80;;;3.55;;
23614;SDS011;11985;49.404;7.734;2023-10-13T20:31:52;13.20;;;5.55;;
23614;SDS011;11985;49.404;7.734;2023-10-13T20:36:55;8.68;;;4.07;;
23614;SDS011;11985;49.404;7.734;2023-10-13T20:41:58;11.32;;;4.00;;
23614;SDS011;11985;49.404;7.734;2023-10-13T20:47:04;9.52;;;4.40;;
23614;SDS011;11985;49.404;7.734;2023-10-13T20:52:08;9.68;;;3.70;;
23614;SDS011;11985;49.404;7.734;2023-10-13T20:57:10;9.57;;;4.18;;
23614;SDS011;11985;49.404;7.734;2023-10-13T21:02:12;13.38;;;4.00;;
23614;SDS011;11985;49.404;7.734;2023-10-13T21:07:15;8.38;;;4.53;;
23614;SDS011;11985;49.404;7.734;2023-10-13T21:12:18;15.38;;;3.85;;
23614;SDS011;11985;49.404;7.734;2023-10-13T21:17:20;11.35;;;4.35;;
23614;SDS011;11985;49.404;7.734;2023-10-13T21:22:26;12.57;;;4.03;;
23614;SDS011;11985;49.404;7.734;2023-10-13T21:27:27;9.63;;;3.75;;
23614;SDS011;11985;49.404;7.734;2023-10-13T21:32:31;11.38;;;4.93;;
23614;SDS011;11985;49.404;7.734;2023-10-13T21:37:34;15.88;;;4.20;;
23614;SDS011;11985;49.404;7.734;2023-10-13T21:42:35;9.27;;;4.47;;
23614;SDS011;11985;49.404;7.734;2023-10-13T21:47:37;10.88;;;4.47;;
23614;SDS011;11985;49.404;7.734;2023-10-13T21:52:40;12.27;;;4.10;;
23614;SDS011;11985;49.404;7.734;2023-10-13T21:57:43;8.63;;;4.07;;
23614;SDS011;11985;49.404;7.734;2023-10-13T22:02:45;7.63;;;4.47;;
23614;SDS011;11985;49.404;7.734;2023-10-13T22:07:48;7.82;;;4.25;;
23614;SDS011;11985;49.404;7.734;2023-10-13T22:12:50;13.95;;;5.20;;
23614;SDS011;11985;49.404;7.734;2023-10-13T22:17:54;18.15;;;5.00;;
23614;SDS011;11985;49.404;7.734;2023-10-13T22:22:57;17.58;;;4.32;;
23614;SDS011;11985;49.404;7.734;2023-10-13T22:27:59;9.32;;;4.35;;
23614;SDS011;11985;49.404;7.734;2023-10-13T22:33:01;10.35;;;4.35;;
23614;SDS011;11985;49.404;7.734;2023-10-13T22:38:04;10.35;;;5.22;;
23614;SDS011;11985;49.404;7.734;2023-10-13T22:43:07;14.03;;;5.00;;
23614;SDS011;11985;49.404;7.734;2023-10-13T22:48:08;9.80;;;4.85;;
23614;SDS011;11985;49.404;7.734;2023-10-13T22:53:11;12.20;;;3.90;;
23614;SDS011;11985;49.404;7.734;2023-10-13T22:58:13;14.57;;;4.60;;
23614;SDS011;11985;49.404;7.734;2023-10-13T23:03:16;11.05;;;4.90;;
23614;SDS011;11985;49.404;7.734;2023-10-13T23:08:20;14.13;;;5.30;;
23614;SDS011;11985;49.404;7.734;2023-10-13T23:13:22;10.23;;;4.68;;
23614;SDS011;11985;49.404;7.734;2023-10-13T23:18:24;14.73;;;5.68;;
23614;SDS011;11985;49.404;7.734;2023-10-13T23:23:29;12.83;;;5.07;;
23614;SDS011;11985;49.404;7.734;2023-10-13T23:28:31;11.77;;;4.85;;
23614;SDS011;11985;49.404;7.734;2023-10-13T23:33:34;14.82;;;5.22;;
23614;SDS011;11985;49.404;7.734;2023-10-13T23:38:38;17.27;;;5.53;;
23614;SDS011;11985;49.404;7.734;2023-10-13T23:43:39;13.57;;;5.00;;
23614;SDS011;11985;49.404;7.734;2023-10-13T23:48:44;14.57;;;5.40;;
23614;SDS011;11985;49.404;7.734;2023-10-13T23:53:48;18.10;;;5.45;;
23614;SDS011;11985;49.404;7.734;2023-10-13T23:58:49;13.55;;;5.57;;
